sensor_id;sensor_type;location;lat;lon;timestamp;P1;durP1;ratioP1;P2;durP2;ratioP2
60896;SDS011;46749;32.932;-117.130;2023-05-15T00:01:55;1.48;;;0.70;;
60896;SDS011;46749;32.932;-117.130;2023-05-15T00:04:21;1.70;;;1.15;;
60896;SDS011;46749;32.932;-117.130;2023-05-15T00:06:47;2.72;;;0.80;;
60896;SDS011;46749;32.932;-117.130;2023-05-15T00:09:14;3.05;;;0.82;;
60896;SDS011;46749;32.932;-117.130;2023-05-15T00:11:40;2.00;;;0.80;;
60896;SDS011;46749;32.932;-117.130;2023-05-15T00:14:07;1.75;;;0.73;;
60896;SDS011;46749;32.932;-117.130;2023-05-15T00:16:33;1.67;;;0.95;;
60896;SDS011;46749;32.932;-117.130;2023-05-15T00:18:59;2.28;;;0.80;;
60896;SDS011;46749;32.932;-117.130;2023-05-15T00:21:25;2.03;;;0.90;;
60896;SDS011;46749;32.932;-117.130;2023-05-15T00:23:51;1.73;;;0.80;;
60896;SDS011;46749;32.932;-117.130;2023-05-15T00:26:18;2.47;;;0.80;;
60896;SDS011;46749;32.932;-117.130;2023-05-15T00:28:45;3.08;;;0.80;;
60896;SDS011;46749;32.932;-117.130;2023-05-15T00:31:11;1.52;;;0.70;;
60896;SDS011;46749;32.932;-117.130;2023-05-15T00:33:39;3.35;;;0.75;;
60896;SDS011;46749;32.932;-117.130;2023-05-15T00:36:05;2.08;;;0.70;;
60896;SDS011;46749;32.932;-117.130;2023-05-15T00:38:50;0.90;;;0.60;;
60896;SDS011;46749;32.932;-117.130;2023-05-15T00:41:16;1.38;;;0.60;;
60896;SDS011;46749;32.932;-117.130;2023-05-15T00:43:43;0.82;;;0.65;;
60896;SDS011;46749;32.932;-117.130;2023-05-15T00:46:11;2.40;;;0.90;;
60896;SDS011;46749;32.932;-117.130;2023-05-15T00:48:38;1.00;;;0.65;;
60896;SDS011;46749;32.932;-117.130;2023-05-15T00:51:06;2.58;;;0.68;;
60896;SDS011;46749;32.932;-117.130;2023-05-15T00:53:34;1.58;;;0.80;;
60896;SDS011;46749;32.932;-117.130;2023-05-15T00:56:00;2.03;;;0.70;;
60896;SDS011;46749;32.932;-117.130;2023-05-15T00:58:30;1.65;;;0.68;;
60896;SDS011;46749;32.932;-117.130;2023-05-15T01:00:58;1.73;;;0.63;;
60896;SDS011;46749;32.932;-117.130;2023-05-15T01:03:24;3.03;;;0.82;;
60896;SDS011;46749;32.932;-117.130;2023-05-15T01:05:50;2.90;;;0.68;;
60896;SDS011;46749;32.932;-117.130;2023-05-15T01:08:26;1.83;;;0.88;;
60896;SDS011;46749;32.932;-117.130;2023-05-15T01:11:05;1.73;;;0.80;;
60896;SDS011;46749;32.932;-117.130;2023-05-15T01:13:33;1.52;;;0.60;;
60896;SDS011;46749;32.932;-117.130;2023-05-15T01:15:59;1.23;;;0.70;;
60896;SDS011;46749;32.932;-117.130;2023-05-15T01:18:25;1.65;;;0.70;;
60896;SDS011;46749;32.932;-117.130;2023-05-15T01:26:20;3.72;;;0.70;;
60896;SDS011;46749;32.932;-117.130;2023-05-15T01:32:08;1.30;;;0.70;;
60896;SDS011;46749;32.932;-117.130;2023-05-15T01:37:27;1.40;;;0.60;;
60896;SDS011;46749;32.932;-117.130;2023-05-15T01:39:57;1.30;;;0.60;;
60896;SDS011;46749;32.932;-117.130;2023-05-15T01:42:29;1.60;;;0.68;;
60896;SDS011;46749;32.932;-117.130;2023-05-15T01:44:57;0.98;;;0.75;;
60896;SDS011;46749;32.932;-117.130;2023-05-15T01:47:45;1.42;;;0.63;;
60896;SDS011;46749;32.932;-117.130;2023-05-15T01:50:13;1.48;;;0.85;;
60896;SDS011;46749;32.932;-117.130;2023-05-15T01:52:43;1.63;;;0.80;;
60896;SDS011;46749;32.932;-117.130;2023-05-15T01:55:14;1.90;;;0.70;;
60896;SDS011;46749;32.932;-117.130;2023-05-15T01:57:41;0.70;;;0.60;;
60896;SDS011;46749;32.932;-117.130;2023-05-15T02:00:09;1.85;;;0.70;;
60896;SDS011;46749;32.932;-117.130;2023-05-15T02:02:37;1.70;;;0.90;;
60896;SDS011;46749;32.932;-117.130;2023-05-15T02:05:04;0.70;;;0.50;;
60896;SDS011;46749;32.932;-117.130;2023-05-15T02:07:32;1.25;;;0.68;;
60896;SDS011;46749;32.932;-117.130;2023-05-15T02:09:59;1.73;;;0.60;;
60896;SDS011;46749;32.932;-117.130;2023-05-15T02:12:27;3.55;;;0.80;;
60896;SDS011;46749;32.932;-117.130;2023-05-15T02:14:54;1.75;;;0.63;;
60896;SDS011;46749;32.932;-117.130;2023-05-15T02:17:23;0.70;;;0.60;;
60896;SDS011;46749;32.932;-117.130;2023-05-15T02:19:50;1.80;;;0.77;;
60896;SDS011;46749;32.932;-117.130;2023-05-15T02:22:16;1.23;;;0.60;;
60896;SDS011;46749;32.932;-117.130;2023-05-15T02:24:42;1.17;;;0.70;;
60896;SDS011;46749;32.932;-117.130;2023-05-15T02:27:12;0.98;;;0.52;;
60896;SDS011;46749;32.932;-117.130;2023-05-15T02:37:44;1.88;;;0.80;;
60896;SDS011;46749;32.932;-117.130;2023-05-15T02:40:12;3.90;;;0.68;;
60896;SDS011;46749;32.932;-117.130;2023-05-15T02:42:41;1.10;;;0.60;;
60896;SDS011;46749;32.932;-117.130;2023-05-15T02:45:10;1.08;;;0.52;;
60896;SDS011;46749;32.932;-117.130;2023-05-15T02:47:37;0.50;;;0.50;;
60896;SDS011;46749;32.932;-117.130;2023-05-15T02:50:05;1.30;;;0.52;;
60896;SDS011;46749;32.932;-117.130;2023-05-15T02:52:32;1.60;;;0.50;;
60896;SDS011;46749;32.932;-117.130;2023-05-15T02:54:59;1.85;;;0.70;;
60896;SDS011;46749;32.932;-117.130;2023-05-15T02:57:25;1.15;;;0.70;;
60896;SDS011;46749;32.932;-117.130;2023-05-15T02:59:55;2.00;;;0.73;;
60896;SDS011;46749;32.932;-117.130;2023-05-15T03:02:21;1.58;;;0.70;;
60896;SDS011;46749;32.932;-117.130;2023-05-15T03:04:48;0.68;;;0.55;;
60896;SDS011;46749;32.932;-117.130;2023-05-15T03:07:14;1.10;;;0.68;;
60896;SDS011;46749;32.932;-117.130;2023-05-15T03:09:40;1.50;;;0.63;;
60896;SDS011;46749;32.932;-117.130;2023-05-15T03:12:06;1.45;;;0.70;;
60896;SDS011;46749;32.932;-117.130;2023-05-15T03:14:33;1.10;;;0.80;;
60896;SDS011;46749;32.932;-117.130;2023-05-15T03:16:59;0.85;;;0.60;;
60896;SDS011;46749;32.932;-117.130;2023-05-15T03:19:25;1.63;;;0.60;;
60896;SDS011;46749;32.932;-117.130;2023-05-15T03:21:51;1.45;;;0.60;;
60896;SDS011;46749;32.932;-117.130;2023-05-15T03:24:18;0.63;;;0.50;;
60896;SDS011;46749;32.932;-117.130;2023-05-15T03:26:44;1.48;;;0.65;;
60896;SDS011;46749;32.932;-117.130;2023-05-15T03:29:10;1.02;;;0.50;;
60896;SDS011;46749;32.932;-117.130;2023-05-15T03:31:36;0.88;;;0.57;;
60896;SDS011;46749;32.932;-117.130;2023-05-15T03:34:02;0.57;;;0.57;;
60896;SDS011;46749;32.932;-117.130;2023-05-15T03:36:29;1.10;;;0.60;;
60896;SDS011;46749;32.932;-117.130;2023-05-15T03:38:55;0.85;;;0.60;;
60896;SDS011;46749;32.932;-117.130;2023-05-15T03:41:22;1.08;;;0.73;;
60896;SDS011;46749;32.932;-117.130;2023-05-15T03:43:48;1.35;;;0.70;;
60896;SDS011;46749;32.932;-117.130;2023-05-15T03:46:14;1.92;;;0.70;;
60896;SDS011;46749;32.932;-117.130;2023-05-15T03:48:40;1.67;;;0.65;;
60896;SDS011;46749;32.932;-117.130;2023-05-15T03:51:06;1.33;;;0.70;;
60896;SDS011;46749;32.932;-117.130;2023-05-15T03:53:33;1.45;;;0.70;;
60896;SDS011;46749;32.932;-117.130;2023-05-15T03:55:59;0.95;;;0.70;;
60896;SDS011;46749;32.932;-117.130;2023-05-15T03:58:25;0.50;;;0.50;;
60896;SDS011;46749;32.932;-117.130;2023-05-15T04:00:51;1.77;;;0.60;;
60896;SDS011;46749;32.932;-117.130;2023-05-15T04:03:18;0.57;;;0.50;;
60896;SDS011;46749;32.932;-117.130;2023-05-15T04:05:44;1.48;;;0.50;;
60896;SDS011;46749;32.932;-117.130;2023-05-15T04:08:14;1.05;;;0.52;;
60896;SDS011;46749;32.932;-117.130;2023-05-15T04:10:41;2.17;;;0.63;;
60896;SDS011;46749;32.932;-117.130;2023-05-15T04:13:07;0.90;;;0.65;;
60896;SDS011;46749;32.932;-117.130;2023-05-15T04:15:33;0.95;;;0.60;;
60896;SDS011;46749;32.932;-117.130;2023-05-15T04:17:59;1.27;;;0.70;;
60896;SDS011;46749;32.932;-117.130;2023-05-15T04:20:26;1.00;;;0.75;;
60896;SDS011;46749;32.932;-117.130;2023-05-15T04:22:52;1.23;;;0.60;;
60896;SDS011;46749;32.932;-117.130;2023-05-15T04:25:18;0.95;;;0.60;;
60896;SDS011;46749;32.932;-117.130;2023-05-15T04:27:45;3.08;;;0.70;;
60896;SDS011;46749;32.932;-117.130;2023-05-15T04:30:11;0.93;;;0.50;;
60896;SDS011;46749;32.932;-117.130;2023-05-15T04:32:38;1.38;;;0.60;;
60896;SDS011;46749;32.932;-117.130;2023-05-15T04:35:06;1.48;;;0.60;;
60896;SDS011;46749;32.932;-117.130;2023-05-15T04:37:41;1.00;;;0.50;;
60896;SDS011;46749;32.932;-117.130;2023-05-15T04:40:09;1.20;;;0.70;;
60896;SDS011;46749;32.932;-117.130;2023-05-15T04:42:37;1.10;;;0.70;;
60896;SDS011;46749;32.932;-117.130;2023-05-15T04:45:03;0.50;;;0.50;;
60896;SDS011;46749;32.932;-117.130;2023-05-15T04:47:30;1.15;;;0.95;;
60896;SDS011;46749;32.932;-117.130;2023-05-15T04:49:56;0.73;;;0.60;;
60896;SDS011;46749;32.932;-117.130;2023-05-15T04:52:22;1.27;;;0.68;;
60896;SDS011;46749;32.932;-117.130;2023-05-15T04:54:49;1.55;;;0.70;;
60896;SDS011;46749;32.932;-117.130;2023-05-15T04:57:17;1.75;;;0.65;;
60896;SDS011;46749;32.932;-117.130;2023-05-15T04:59:43;0.60;;;0.60;;
60896;SDS011;46749;32.932;-117.130;2023-05-15T05:02:09;0.77;;;0.70;;
60896;SDS011;46749;32.932;-117.130;2023-05-15T05:04:35;1.42;;;0.73;;
60896;SDS011;46749;32.932;-117.130;2023-05-15T05:07:02;0.75;;;0.70;;
60896;SDS011;46749;32.932;-117.130;2023-05-15T05:09:30;1.77;;;0.70;;
60896;SDS011;46749;32.932;-117.130;2023-05-15T05:11:59;1.88;;;0.60;;
60896;SDS011;46749;32.932;-117.130;2023-05-15T05:14:26;2.65;;;0.63;;
60896;SDS011;46749;32.932;-117.130;2023-05-15T05:16:52;1.25;;;0.73;;
60896;SDS011;46749;32.932;-117.130;2023-05-15T05:19:18;0.60;;;0.55;;
60896;SDS011;46749;32.932;-117.130;2023-05-15T05:21:44;1.52;;;0.70;;
60896;SDS011;46749;32.932;-117.130;2023-05-15T05:24:11;0.50;;;0.50;;
60896;SDS011;46749;32.932;-117.130;2023-05-15T05:26:37;0.82;;;0.60;;
60896;SDS011;46749;32.932;-117.130;2023-05-15T05:29:03;0.65;;;0.60;;
60896;SDS011;46749;32.932;-117.130;2023-05-15T05:31:29;0.45;;;0.45;;
60896;SDS011;46749;32.932;-117.130;2023-05-15T05:33:55;0.70;;;0.60;;
60896;SDS011;46749;32.932;-117.130;2023-05-15T05:36:22;0.95;;;0.60;;
60896;SDS011;46749;32.932;-117.130;2023-05-15T05:38:48;2.08;;;0.55;;
60896;SDS011;46749;32.932;-117.130;2023-05-15T05:41:14;0.80;;;0.60;;
60896;SDS011;46749;32.932;-117.130;2023-05-15T05:43:40;1.40;;;0.60;;
60896;SDS011;46749;32.932;-117.130;2023-05-15T05:46:06;2.08;;;0.63;;
60896;SDS011;46749;32.932;-117.130;2023-05-15T05:48:32;1.85;;;0.60;;
60896;SDS011;46749;32.932;-117.130;2023-05-15T05:50:59;1.33;;;0.50;;
60896;SDS011;46749;32.932;-117.130;2023-05-15T05:53:25;0.50;;;0.50;;
60896;SDS011;46749;32.932;-117.130;2023-05-15T05:55:51;0.50;;;0.50;;
60896;SDS011;46749;32.932;-117.130;2023-05-15T05:58:17;0.40;;;0.40;;
60896;SDS011;46749;32.932;-117.130;2023-05-15T06:00:44;0.50;;;0.50;;
60896;SDS011;46749;32.932;-117.130;2023-05-15T06:03:10;0.60;;;0.50;;
60896;SDS011;46749;32.932;-117.130;2023-05-15T06:05:36;0.60;;;0.50;;
60896;SDS011;46749;32.932;-117.130;2023-05-15T06:08:02;1.60;;;0.60;;
60896;SDS011;46749;32.932;-117.130;2023-05-15T06:10:29;1.42;;;0.50;;
60896;SDS011;46749;32.932;-117.130;2023-05-15T06:12:55;0.47;;;0.40;;
60896;SDS011;46749;32.932;-117.130;2023-05-15T06:15:21;0.43;;;0.43;;
60896;SDS011;46749;32.932;-117.130;2023-05-15T06:17:47;0.50;;;0.50;;
60896;SDS011;46749;32.932;-117.130;2023-05-15T06:20:14;1.05;;;0.50;;
60896;SDS011;46749;32.932;-117.130;2023-05-15T06:22:40;0.65;;;0.50;;
60896;SDS011;46749;32.932;-117.130;2023-05-15T06:25:06;0.57;;;0.40;;
60896;SDS011;46749;32.932;-117.130;2023-05-15T06:27:38;0.50;;;0.50;;
60896;SDS011;46749;32.932;-117.130;2023-05-15T06:30:05;0.80;;;0.50;;
60896;SDS011;46749;32.932;-117.130;2023-05-15T06:32:33;1.10;;;0.50;;
60896;SDS011;46749;32.932;-117.130;2023-05-15T06:34:59;1.25;;;0.52;;
60896;SDS011;46749;32.932;-117.130;2023-05-15T06:37:26;0.63;;;0.50;;
60896;SDS011;46749;32.932;-117.130;2023-05-15T06:39:53;0.55;;;0.50;;
60896;SDS011;46749;32.932;-117.130;2023-05-15T06:42:20;0.40;;;0.40;;
60896;SDS011;46749;32.932;-117.130;2023-05-15T06:44:47;0.90;;;0.50;;
60896;SDS011;46749;32.932;-117.130;2023-05-15T06:47:14;0.70;;;0.47;;
60896;SDS011;46749;32.932;-117.130;2023-05-15T06:49:40;0.35;;;0.35;;
60896;SDS011;46749;32.932;-117.130;2023-05-15T06:52:06;0.30;;;0.30;;
60896;SDS011;46749;32.932;-117.130;2023-05-15T06:54:33;0.82;;;0.50;;
60896;SDS011;46749;32.932;-117.130;2023-05-15T06:56:59;0.80;;;0.30;;
60896;SDS011;46749;32.932;-117.130;2023-05-15T06:59:25;0.73;;;0.40;;
60896;SDS011;46749;32.932;-117.130;2023-05-15T07:01:52;0.60;;;0.45;;
60896;SDS011;46749;32.932;-117.130;2023-05-15T07:04:18;0.40;;;0.40;;
60896;SDS011;46749;32.932;-117.130;2023-05-15T07:06:45;0.55;;;0.40;;
60896;SDS011;46749;32.932;-117.130;2023-05-15T07:09:11;0.50;;;0.50;;
60896;SDS011;46749;32.932;-117.130;2023-05-15T07:11:37;0.82;;;0.55;;
60896;SDS011;46749;32.932;-117.130;2023-05-15T07:14:05;0.30;;;0.30;;
60896;SDS011;46749;32.932;-117.130;2023-05-15T07:16:31;0.50;;;0.40;;
60896;SDS011;46749;32.932;-117.130;2023-05-15T07:18:57;1.08;;;0.50;;
60896;SDS011;46749;32.932;-117.130;2023-05-15T07:21:25;0.30;;;0.30;;
60896;SDS011;46749;32.932;-117.130;2023-05-15T07:23:51;0.52;;;0.47;;
60896;SDS011;46749;32.932;-117.130;2023-05-15T07:26:17;0.73;;;0.50;;
60896;SDS011;46749;32.932;-117.130;2023-05-15T07:28:43;0.32;;;0.32;;
60896;SDS011;46749;32.932;-117.130;2023-05-15T07:31:09;0.98;;;0.40;;
60896;SDS011;46749;32.932;-117.130;2023-05-15T07:33:36;0.40;;;0.40;;
60896;SDS011;46749;32.932;-117.130;2023-05-15T07:36:02;0.95;;;0.50;;
60896;SDS011;46749;32.932;-117.130;2023-05-15T07:38:28;0.40;;;0.40;;
60896;SDS011;46749;32.932;-117.130;2023-05-15T07:40:54;0.43;;;0.40;;
60896;SDS011;46749;32.932;-117.130;2023-05-15T07:43:21;0.47;;;0.28;;
60896;SDS011;46749;32.932;-117.130;2023-05-15T07:45:47;0.40;;;0.40;;
60896;SDS011;46749;32.932;-117.130;2023-05-15T07:48:17;0.63;;;0.40;;
60896;SDS011;46749;32.932;-117.130;2023-05-15T07:50:44;0.32;;;0.32;;
60896;SDS011;46749;32.932;-117.130;2023-05-15T07:53:11;0.30;;;0.30;;
60896;SDS011;46749;32.932;-117.130;2023-05-15T07:55:39;0.38;;;0.38;;
60896;SDS011;46749;32.932;-117.130;2023-05-15T07:58:05;0.75;;;0.50;;
60896;SDS011;46749;32.932;-117.130;2023-05-15T08:00:32;0.73;;;0.40;;
60896;SDS011;46749;32.932;-117.130;2023-05-15T08:02:58;0.93;;;0.40;;
60896;SDS011;46749;32.932;-117.130;2023-05-15T08:05:25;0.45;;;0.40;;
60896;SDS011;46749;32.932;-117.130;2023-05-15T08:07:51;0.38;;;0.38;;
60896;SDS011;46749;32.932;-117.130;2023-05-15T08:10:17;0.30;;;0.30;;
60896;SDS011;46749;32.932;-117.130;2023-05-15T08:12:43;0.57;;;0.57;;
60896;SDS011;46749;32.932;-117.130;2023-05-15T08:15:11;1.40;;;0.32;;
60896;SDS011;46749;32.932;-117.130;2023-05-15T08:17:38;0.25;;;0.25;;
60896;SDS011;46749;32.932;-117.130;2023-05-15T08:20:05;0.60;;;0.40;;
60896;SDS011;46749;32.932;-117.130;2023-05-15T08:22:32;0.35;;;0.35;;
60896;SDS011;46749;32.932;-117.130;2023-05-15T08:24:58;0.30;;;0.30;;
60896;SDS011;46749;32.932;-117.130;2023-05-15T08:27:25;0.43;;;0.40;;
60896;SDS011;46749;32.932;-117.130;2023-05-15T08:29:51;0.35;;;0.35;;
60896;SDS011;46749;32.932;-117.130;2023-05-15T08:35:03;0.40;;;0.38;;
60896;SDS011;46749;32.932;-117.130;2023-05-15T08:37:30;0.38;;;0.38;;
60896;SDS011;46749;32.932;-117.130;2023-05-15T08:39:57;0.75;;;0.35;;
60896;SDS011;46749;32.932;-117.130;2023-05-15T08:42:26;0.43;;;0.30;;
60896;SDS011;46749;32.932;-117.130;2023-05-15T08:44:58;0.65;;;0.60;;
60896;SDS011;46749;32.932;-117.130;2023-05-15T08:47:27;0.40;;;0.40;;
60896;SDS011;46749;32.932;-117.130;2023-05-15T08:50:14;0.38;;;0.32;;
60896;SDS011;46749;32.932;-117.130;2023-05-15T08:52:42;0.73;;;0.30;;
60896;SDS011;46749;32.932;-117.130;2023-05-15T08:55:12;0.43;;;0.43;;
60896;SDS011;46749;32.932;-117.130;2023-05-15T08:57:39;0.30;;;0.30;;
60896;SDS011;46749;32.932;-117.130;2023-05-15T09:00:06;0.63;;;0.38;;
60896;SDS011;46749;32.932;-117.130;2023-05-15T09:02:36;0.40;;;0.40;;
60896;SDS011;46749;32.932;-117.130;2023-05-15T09:05:06;0.35;;;0.35;;
60896;SDS011;46749;32.932;-117.130;2023-05-15T09:07:33;0.40;;;0.40;;
60896;SDS011;46749;32.932;-117.130;2023-05-15T09:10:01;0.30;;;0.30;;
60896;SDS011;46749;32.932;-117.130;2023-05-15T09:12:28;0.47;;;0.30;;
60896;SDS011;46749;32.932;-117.130;2023-05-15T09:15:08;0.40;;;0.40;;
60896;SDS011;46749;32.932;-117.130;2023-05-15T09:17:35;0.85;;;0.20;;
60896;SDS011;46749;32.932;-117.130;2023-05-15T09:20:02;1.40;;;0.60;;
60896;SDS011;46749;32.932;-117.130;2023-05-15T09:22:33;1.00;;;0.40;;
60896;SDS011;46749;32.932;-117.130;2023-05-15T09:25:00;0.55;;;0.40;;
60896;SDS011;46749;32.932;-117.130;2023-05-15T09:27:28;0.40;;;0.40;;
60896;SDS011;46749;32.932;-117.130;2023-05-15T09:29:55;0.73;;;0.30;;
60896;SDS011;46749;32.932;-117.130;2023-05-15T09:32:34;0.30;;;0.30;;
60896;SDS011;46749;32.932;-117.130;2023-05-15T09:35:01;0.57;;;0.50;;
60896;SDS011;46749;32.932;-117.130;2023-05-15T09:37:29;0.50;;;0.30;;
60896;SDS011;46749;32.932;-117.130;2023-05-15T09:40:09;0.50;;;0.30;;
60896;SDS011;46749;32.932;-117.130;2023-05-15T09:42:36;0.25;;;0.25;;
60896;SDS011;46749;32.932;-117.130;2023-05-15T09:45:03;0.30;;;0.30;;
60896;SDS011;46749;32.932;-117.130;2023-05-15T09:47:29;1.58;;;0.43;;
60896;SDS011;46749;32.932;-117.130;2023-05-15T09:49:56;0.60;;;0.38;;
60896;SDS011;46749;32.932;-117.130;2023-05-15T09:52:22;0.60;;;0.40;;
60896;SDS011;46749;32.932;-117.130;2023-05-15T09:54:48;0.32;;;0.30;;
60896;SDS011;46749;32.932;-117.130;2023-05-15T09:57:14;0.55;;;0.50;;
60896;SDS011;46749;32.932;-117.130;2023-05-15T09:59:45;0.30;;;0.30;;
60896;SDS011;46749;32.932;-117.130;2023-05-15T10:02:22;0.55;;;0.50;;
60896;SDS011;46749;32.932;-117.130;2023-05-15T10:04:52;0.40;;;0.40;;
60896;SDS011;46749;32.932;-117.130;2023-05-15T10:07:27;1.02;;;0.50;;
60896;SDS011;46749;32.932;-117.130;2023-05-15T10:09:54;0.38;;;0.30;;
60896;SDS011;46749;32.932;-117.130;2023-05-15T10:12:20;0.63;;;0.55;;
60896;SDS011;46749;32.932;-117.130;2023-05-15T10:14:49;0.30;;;0.30;;
60896;SDS011;46749;32.932;-117.130;2023-05-15T10:17:17;0.40;;;0.30;;
60896;SDS011;46749;32.932;-117.130;2023-05-15T10:19:45;0.38;;;0.35;;
60896;SDS011;46749;32.932;-117.130;2023-05-15T10:22:15;0.65;;;0.40;;
60896;SDS011;46749;32.932;-117.130;2023-05-15T10:24:48;0.40;;;0.40;;
60896;SDS011;46749;32.932;-117.130;2023-05-15T10:27:22;0.40;;;0.40;;
60896;SDS011;46749;32.932;-117.130;2023-05-15T10:29:51;0.40;;;0.40;;
60896;SDS011;46749;32.932;-117.130;2023-05-15T10:32:19;0.65;;;0.40;;
60896;SDS011;46749;32.932;-117.130;2023-05-15T10:34:46;0.52;;;0.40;;
60896;SDS011;46749;32.932;-117.130;2023-05-15T10:37:14;1.40;;;0.40;;
60896;SDS011;46749;32.932;-117.130;2023-05-15T10:39:41;0.40;;;0.40;;
60896;SDS011;46749;32.932;-117.130;2023-05-15T10:42:09;0.75;;;0.50;;
60896;SDS011;46749;32.932;-117.130;2023-05-15T10:44:37;0.40;;;0.30;;
60896;SDS011;46749;32.932;-117.130;2023-05-15T10:47:03;0.40;;;0.40;;
60896;SDS011;46749;32.932;-117.130;2023-05-15T10:49:31;0.63;;;0.45;;
60896;SDS011;46749;32.932;-117.130;2023-05-15T10:52:00;0.40;;;0.30;;
60896;SDS011;46749;32.932;-117.130;2023-05-15T10:54:27;0.40;;;0.40;;
60896;SDS011;46749;32.932;-117.130;2023-05-15T10:56:54;0.30;;;0.30;;
60896;SDS011;46749;32.932;-117.130;2023-05-15T10:59:22;0.45;;;0.30;;
60896;SDS011;46749;32.932;-117.130;2023-05-15T11:01:56;0.30;;;0.30;;
60896;SDS011;46749;32.932;-117.130;2023-05-15T11:04:35;0.30;;;0.30;;
60896;SDS011;46749;32.932;-117.130;2023-05-15T11:07:12;0.45;;;0.30;;
60896;SDS011;46749;32.932;-117.130;2023-05-15T11:09:40;0.30;;;0.30;;
60896;SDS011;46749;32.932;-117.130;2023-05-15T11:12:07;0.30;;;0.30;;
60896;SDS011;46749;32.932;-117.130;2023-05-15T11:14:37;0.93;;;0.50;;
60896;SDS011;46749;32.932;-117.130;2023-05-15T11:17:08;0.50;;;0.40;;
60896;SDS011;46749;32.932;-117.130;2023-05-15T11:19:36;2.05;;;0.40;;
60896;SDS011;46749;32.932;-117.130;2023-05-15T11:24:49;0.25;;;0.20;;
60896;SDS011;46749;32.932;-117.130;2023-05-15T11:35:25;0.60;;;0.40;;
60896;SDS011;46749;32.932;-117.130;2023-05-15T11:40:27;0.68;;;0.40;;
60896;SDS011;46749;32.932;-117.130;2023-05-15T11:45:42;0.30;;;0.30;;
60896;SDS011;46749;32.932;-117.130;2023-05-15T11:48:17;0.40;;;0.40;;
60896;SDS011;46749;32.932;-117.130;2023-05-15T11:50:43;0.30;;;0.30;;
60896;SDS011;46749;32.932;-117.130;2023-05-15T11:53:10;0.30;;;0.30;;
60896;SDS011;46749;32.932;-117.130;2023-05-15T11:55:38;0.43;;;0.25;;
60896;SDS011;46749;32.932;-117.130;2023-05-15T11:58:15;0.28;;;0.28;;
60896;SDS011;46749;32.932;-117.130;2023-05-15T12:00:43;0.30;;;0.30;;
60896;SDS011;46749;32.932;-117.130;2023-05-15T12:03:14;0.32;;;0.20;;
60896;SDS011;46749;32.932;-117.130;2023-05-15T12:05:41;0.20;;;0.20;;
60896;SDS011;46749;32.932;-117.130;2023-05-15T12:08:11;0.43;;;0.30;;
60896;SDS011;46749;32.932;-117.130;2023-05-15T12:10:44;0.30;;;0.30;;
60896;SDS011;46749;32.932;-117.130;2023-05-15T12:13:11;0.60;;;0.40;;
60896;SDS011;46749;32.932;-117.130;2023-05-15T12:15:42;0.77;;;0.30;;
60896;SDS011;46749;32.932;-117.130;2023-05-15T12:18:12;0.43;;;0.30;;
60896;SDS011;46749;32.932;-117.130;2023-05-15T12:20:38;0.30;;;0.30;;
60896;SDS011;46749;32.932;-117.130;2023-05-15T12:23:15;1.33;;;0.30;;
60896;SDS011;46749;32.932;-117.130;2023-05-15T12:25:42;0.50;;;0.30;;
60896;SDS011;46749;32.932;-117.130;2023-05-15T12:28:10;0.30;;;0.30;;
60896;SDS011;46749;32.932;-117.130;2023-05-15T12:30:38;0.30;;;0.30;;
60896;SDS011;46749;32.932;-117.130;2023-05-15T12:33:07;0.20;;;0.20;;
60896;SDS011;46749;32.932;-117.130;2023-05-15T12:35:35;0.28;;;0.28;;
60896;SDS011;46749;32.932;-117.130;2023-05-15T12:38:05;0.22;;;0.22;;
60896;SDS011;46749;32.932;-117.130;2023-05-15T12:40:32;0.40;;;0.30;;
60896;SDS011;46749;32.932;-117.130;2023-05-15T12:43:03;0.30;;;0.20;;
60896;SDS011;46749;32.932;-117.130;2023-05-15T12:45:32;0.20;;;0.20;;
60896;SDS011;46749;32.932;-117.130;2023-05-15T12:48:02;0.45;;;0.20;;
60896;SDS011;46749;32.932;-117.130;2023-05-15T12:50:31;0.30;;;0.25;;
60896;SDS011;46749;32.932;-117.130;2023-05-15T12:53:01;0.47;;;0.40;;
60896;SDS011;46749;32.932;-117.130;2023-05-15T12:58:00;0.30;;;0.30;;
60896;SDS011;46749;32.932;-117.130;2023-05-15T13:00:30;0.95;;;0.30;;
60896;SDS011;46749;32.932;-117.130;2023-05-15T13:02:58;0.30;;;0.30;;
60896;SDS011;46749;32.932;-117.130;2023-05-15T13:05:27;0.20;;;0.20;;
60896;SDS011;46749;32.932;-117.130;2023-05-15T13:07:59;0.40;;;0.30;;
60896;SDS011;46749;32.932;-117.130;2023-05-15T13:10:27;0.22;;;0.22;;
60896;SDS011;46749;32.932;-117.130;2023-05-15T13:12:57;0.52;;;0.30;;
60896;SDS011;46749;32.932;-117.130;2023-05-15T13:15:24;0.57;;;0.45;;
60896;SDS011;46749;32.932;-117.130;2023-05-15T13:18:03;0.30;;;0.30;;
60896;SDS011;46749;32.932;-117.130;2023-05-15T13:20:51;0.88;;;0.22;;
60896;SDS011;46749;32.932;-117.130;2023-05-15T13:23:18;0.38;;;0.38;;
60896;SDS011;46749;32.932;-117.130;2023-05-15T13:25:47;0.70;;;0.30;;
60896;SDS011;46749;32.932;-117.130;2023-05-15T13:28:13;0.77;;;0.47;;
60896;SDS011;46749;32.932;-117.130;2023-05-15T13:30:40;0.40;;;0.25;;
60896;SDS011;46749;32.932;-117.130;2023-05-15T13:33:07;0.30;;;0.30;;
60896;SDS011;46749;32.932;-117.130;2023-05-15T13:35:35;0.68;;;0.30;;
60896;SDS011;46749;32.932;-117.130;2023-05-15T13:38:02;0.50;;;0.30;;
60896;SDS011;46749;32.932;-117.130;2023-05-15T13:40:28;0.30;;;0.30;;
60896;SDS011;46749;32.932;-117.130;2023-05-15T13:42:59;0.22;;;0.22;;
60896;SDS011;46749;32.932;-117.130;2023-05-15T13:45:25;0.25;;;0.22;;
60896;SDS011;46749;32.932;-117.130;2023-05-15T13:47:53;0.30;;;0.20;;
60896;SDS011;46749;32.932;-117.130;2023-05-15T13:50:19;0.20;;;0.20;;
60896;SDS011;46749;32.932;-117.130;2023-05-15T13:52:46;0.22;;;0.22;;
60896;SDS011;46749;32.932;-117.130;2023-05-15T13:55:12;0.40;;;0.20;;
60896;SDS011;46749;32.932;-117.130;2023-05-15T13:57:39;0.22;;;0.22;;
60896;SDS011;46749;32.932;-117.130;2023-05-15T14:00:07;0.20;;;0.20;;
60896;SDS011;46749;32.932;-117.130;2023-05-15T14:02:40;1.15;;;0.68;;
60896;SDS011;46749;32.932;-117.130;2023-05-15T14:05:07;0.40;;;0.30;;
60896;SDS011;46749;32.932;-117.130;2023-05-15T14:07:35;0.30;;;0.20;;
60896;SDS011;46749;32.932;-117.130;2023-05-15T14:10:02;0.55;;;0.28;;
60896;SDS011;46749;32.932;-117.130;2023-05-15T14:12:28;0.20;;;0.20;;
60896;SDS011;46749;32.932;-117.130;2023-05-15T14:14:55;0.38;;;0.20;;
60896;SDS011;46749;32.932;-117.130;2023-05-15T14:17:22;0.30;;;0.30;;
60896;SDS011;46749;32.932;-117.130;2023-05-15T14:19:48;0.30;;;0.30;;
60896;SDS011;46749;32.932;-117.130;2023-05-15T14:22:14;0.20;;;0.20;;
60896;SDS011;46749;32.932;-117.130;2023-05-15T14:24:40;0.35;;;0.30;;
60896;SDS011;46749;32.932;-117.130;2023-05-15T14:27:07;0.30;;;0.20;;
60896;SDS011;46749;32.932;-117.130;2023-05-15T14:29:33;0.50;;;0.20;;
60896;SDS011;46749;32.932;-117.130;2023-05-15T14:32:00;0.20;;;0.20;;
60896;SDS011;46749;32.932;-117.130;2023-05-15T14:34:28;0.20;;;0.20;;
60896;SDS011;46749;32.932;-117.130;2023-05-15T14:36:54;0.30;;;0.30;;
60896;SDS011;46749;32.932;-117.130;2023-05-15T14:39:20;0.22;;;0.22;;
60896;SDS011;46749;32.932;-117.130;2023-05-15T14:41:47;1.50;;;0.28;;
60896;SDS011;46749;32.932;-117.130;2023-05-15T14:44:13;0.52;;;0.20;;
60896;SDS011;46749;32.932;-117.130;2023-05-15T14:46:40;0.20;;;0.20;;
60896;SDS011;46749;32.932;-117.130;2023-05-15T14:49:07;0.20;;;0.20;;
60896;SDS011;46749;32.932;-117.130;2023-05-15T14:51:33;0.20;;;0.20;;
60896;SDS011;46749;32.932;-117.130;2023-05-15T14:53:59;0.30;;;0.30;;